CheckWX is a tool to help pilots better visualize weather data.  It is not intended as a substitute for an official pre-flight weather briefing.

17:27:26 UTC

KAHN METAR
Athens / Ben Epps Airport
Athens, Georgia, USA
Current

36 mins ago

KAHN 241651Z 17005KT 10SM CLR 21/06 A3028 RMK AO2 SLP252 T02060061
Observed
Mar-24 @ 16:51 UTC
Wind
  • 170° at 5 KTS
Visibility
10 SM
Flight Rules
VFR
Cloud Levels
  • Clear skies
Temperature
21°C / 70°F
Dewpoint
C / 43°F
Humidity
38%
Altimeter
30.28" Hg
Pressure
1025.2 hPa
Previous

2 hours ago

KAHN 241551Z VRB06KT 10SM CLR 18/07 A3030 RMK AO2 SLP260 T01830067
Observed
Mar-24 @ 15:51 UTC
Wind
  • Variable at 6 KTS
Visibility
10 SM
Flight Rules
VFR
Cloud Levels
  • Clear skies
Temperature
18°C / 64°F
Dewpoint
C / 45°F
Humidity
49%
Altimeter
30.3" Hg
Pressure
1026 hPa
Previous

3 hours ago

KAHN 241451Z 20005KT 10SM CLR 16/08 A3032 RMK AO2 SLP267 T01560078 51011
Observed
Mar-24 @ 14:51 UTC
Wind
  • 200° at 5 KTS
Visibility
10 SM
Flight Rules
VFR
Cloud Levels
  • Clear skies
Temperature
16°C / 61°F
Dewpoint
C / 46°F
Humidity
59%
Altimeter
30.32" Hg
Pressure
1026.7 hPa